sensor_id;sensor_type;location;lat;lon;timestamp;P1;durP1;ratioP1;P2;durP2;ratioP2
20365;SDS011;10341;49.894;8.822;2024-03-25T00:00:39;2.60;;;1.33;;
20365;SDS011;10341;49.894;8.822;2024-03-25T00:05:58;1.97;;;1.30;;
20365;SDS011;10341;49.894;8.822;2024-03-25T00:11:18;4.28;;;1.20;;
20365;SDS011;10341;49.894;8.822;2024-03-25T00:16:37;3.50;;;1.43;;
20365;SDS011;10341;49.894;8.822;2024-03-25T00:21:56;2.83;;;1.40;;
20365;SDS011;10341;49.894;8.822;2024-03-25T00:27:16;2.85;;;1.30;;
20365;SDS011;10341;49.894;8.822;2024-03-25T00:32:35;2.22;;;1.23;;
20365;SDS011;10341;49.894;8.822;2024-03-25T00:37:54;2.50;;;1.23;;
20365;SDS011;10341;49.894;8.822;2024-03-25T00:43:13;3.33;;;0.97;;
20365;SDS011;10341;49.894;8.822;2024-03-25T00:48:33;1.88;;;1.40;;
20365;SDS011;10341;49.894;8.822;2024-03-25T00:53:52;4.63;;;1.70;;
20365;SDS011;10341;49.894;8.822;2024-03-25T00:59:11;5.07;;;1.40;;
20365;SDS011;10341;49.894;8.822;2024-03-25T01:04:30;4.82;;;1.60;;
20365;SDS011;10341;49.894;8.822;2024-03-25T01:09:49;3.40;;;1.10;;
20365;SDS011;10341;49.894;8.822;2024-03-25T01:15:09;4.70;;;1.98;;
20365;SDS011;10341;49.894;8.822;2024-03-25T01:20:31;5.25;;;1.40;;
20365;SDS011;10341;49.894;8.822;2024-03-25T01:25:50;3.05;;;1.30;;
20365;SDS011;10341;49.894;8.822;2024-03-25T01:31:09;6.23;;;1.70;;
20365;SDS011;10341;49.894;8.822;2024-03-25T01:36:29;5.93;;;1.75;;
20365;SDS011;10341;49.894;8.822;2024-03-25T01:41:48;5.78;;;1.50;;
20365;SDS011;10341;49.894;8.822;2024-03-25T01:47:07;3.07;;;1.40;;
20365;SDS011;10341;49.894;8.822;2024-03-25T01:52:26;6.77;;;1.70;;
20365;SDS011;10341;49.894;8.822;2024-03-25T01:57:47;5.10;;;1.52;;
20365;SDS011;10341;49.894;8.822;2024-03-25T02:03:06;7.20;;;1.90;;
20365;SDS011;10341;49.894;8.822;2024-03-25T02:08:27;5.03;;;1.58;;
20365;SDS011;10341;49.894;8.822;2024-03-25T02:13:46;6.85;;;1.58;;
20365;SDS011;10341;49.894;8.822;2024-03-25T02:19:06;5.53;;;1.70;;
20365;SDS011;10341;49.894;8.822;2024-03-25T02:24:27;2.67;;;1.30;;
20365;SDS011;10341;49.894;8.822;2024-03-25T02:29:48;3.83;;;1.55;;
20365;SDS011;10341;49.894;8.822;2024-03-25T02:35:07;5.73;;;1.97;;
20365;SDS011;10341;49.894;8.822;2024-03-25T02:40:30;5.30;;;1.52;;
20365;SDS011;10341;49.894;8.822;2024-03-25T02:51:09;4.95;;;1.63;;
20365;SDS011;10341;49.894;8.822;2024-03-25T02:56:28;4.73;;;1.67;;
20365;SDS011;10341;49.894;8.822;2024-03-25T03:01:47;4.37;;;1.60;;
20365;SDS011;10341;49.894;8.822;2024-03-25T03:07:06;5.53;;;1.63;;
20365;SDS011;10341;49.894;8.822;2024-03-25T03:12:25;4.90;;;2.00;;
20365;SDS011;10341;49.894;8.822;2024-03-25T03:17:44;4.70;;;1.63;;
20365;SDS011;10341;49.894;8.822;2024-03-25T03:23:04;3.15;;;1.65;;
20365;SDS011;10341;49.894;8.822;2024-03-25T03:28:23;4.38;;;1.67;;
20365;SDS011;10341;49.894;8.822;2024-03-25T03:33:42;5.13;;;1.55;;
20365;SDS011;10341;49.894;8.822;2024-03-25T03:39:02;5.03;;;1.33;;
20365;SDS011;10341;49.894;8.822;2024-03-25T03:44:22;4.70;;;1.50;;
20365;SDS011;10341;49.894;8.822;2024-03-25T03:49:41;3.93;;;1.50;;
20365;SDS011;10341;49.894;8.822;2024-03-25T03:55:00;5.38;;;1.58;;
20365;SDS011;10341;49.894;8.822;2024-03-25T04:00:19;6.10;;;2.10;;
20365;SDS011;10341;49.894;8.822;2024-03-25T04:05:38;3.33;;;1.70;;
20365;SDS011;10341;49.894;8.822;2024-03-25T04:11:01;5.15;;;1.80;;
20365;SDS011;10341;49.894;8.822;2024-03-25T04:16:20;3.03;;;1.50;;
20365;SDS011;10341;49.894;8.822;2024-03-25T04:21:42;5.35;;;1.90;;
20365;SDS011;10341;49.894;8.822;2024-03-25T04:27:01;5.13;;;1.75;;
20365;SDS011;10341;49.894;8.822;2024-03-25T04:32:20;6.47;;;1.90;;
20365;SDS011;10341;49.894;8.822;2024-03-25T04:37:40;5.20;;;2.00;;
20365;SDS011;10341;49.894;8.822;2024-03-25T04:43:00;13.73;;;2.47;;
20365;SDS011;10341;49.894;8.822;2024-03-25T04:48:21;5.43;;;1.58;;
20365;SDS011;10341;49.894;8.822;2024-03-25T04:53:40;4.47;;;1.93;;
20365;SDS011;10341;49.894;8.822;2024-03-25T04:59:00;4.20;;;2.30;;
20365;SDS011;10341;49.894;8.822;2024-03-25T05:04:21;5.15;;;1.98;;
20365;SDS011;10341;49.894;8.822;2024-03-25T05:09:42;4.72;;;1.77;;
20365;SDS011;10341;49.894;8.822;2024-03-25T05:15:02;5.97;;;1.88;;
20365;SDS011;10341;49.894;8.822;2024-03-25T05:25:41;5.93;;;2.00;;
20365;SDS011;10341;49.894;8.822;2024-03-25T05:31:06;3.27;;;1.73;;
20365;SDS011;10341;49.894;8.822;2024-03-25T05:36:27;5.35;;;1.85;;
20365;SDS011;10341;49.894;8.822;2024-03-25T05:41:46;7.63;;;2.25;;
20365;SDS011;10341;49.894;8.822;2024-03-25T05:52:28;6.30;;;2.05;;
20365;SDS011;10341;49.894;8.822;2024-03-25T05:57:47;7.03;;;1.75;;
20365;SDS011;10341;49.894;8.822;2024-03-25T06:03:06;7.30;;;2.13;;
20365;SDS011;10341;49.894;8.822;2024-03-25T06:08:26;8.88;;;1.90;;
20365;SDS011;10341;49.894;8.822;2024-03-25T06:13:46;6.05;;;2.55;;
20365;SDS011;10341;49.894;8.822;2024-03-25T06:19:06;6.05;;;2.38;;
20365;SDS011;10341;49.894;8.822;2024-03-25T06:24:25;4.88;;;2.53;;
20365;SDS011;10341;49.894;8.822;2024-03-25T06:29:44;5.17;;;2.10;;
20365;SDS011;10341;49.894;8.822;2024-03-25T06:35:05;7.93;;;2.13;;
20365;SDS011;10341;49.894;8.822;2024-03-25T06:40:25;4.50;;;2.15;;
20365;SDS011;10341;49.894;8.822;2024-03-25T06:45:44;7.67;;;2.00;;
20365;SDS011;10341;49.894;8.822;2024-03-25T06:51:03;6.17;;;2.07;;
20365;SDS011;10341;49.894;8.822;2024-03-25T06:56:23;9.75;;;2.30;;
20365;SDS011;10341;49.894;8.822;2024-03-25T07:01:42;4.43;;;1.40;;
20365;SDS011;10341;49.894;8.822;2024-03-25T07:07:01;5.47;;;1.70;;
20365;SDS011;10341;49.894;8.822;2024-03-25T07:12:23;4.32;;;1.50;;
20365;SDS011;10341;49.894;8.822;2024-03-25T07:17:42;4.90;;;1.58;;
20365;SDS011;10341;49.894;8.822;2024-03-25T07:23:02;5.32;;;1.70;;
20365;SDS011;10341;49.894;8.822;2024-03-25T07:28:22;5.65;;;1.52;;
20365;SDS011;10341;49.894;8.822;2024-03-25T07:33:41;6.47;;;1.50;;
20365;SDS011;10341;49.894;8.822;2024-03-25T07:39:00;6.60;;;1.48;;
20365;SDS011;10341;49.894;8.822;2024-03-25T07:44:20;6.57;;;1.75;;
20365;SDS011;10341;49.894;8.822;2024-03-25T07:49:39;4.45;;;1.40;;
20365;SDS011;10341;49.894;8.822;2024-03-25T07:55:00;5.60;;;1.65;;
20365;SDS011;10341;49.894;8.822;2024-03-25T08:00:20;5.82;;;1.50;;
20365;SDS011;10341;49.894;8.822;2024-03-25T08:05:39;8.88;;;2.00;;
20365;SDS011;10341;49.894;8.822;2024-03-25T08:10:59;4.80;;;1.90;;
20365;SDS011;10341;49.894;8.822;2024-03-25T08:16:18;6.47;;;1.70;;
20365;SDS011;10341;49.894;8.822;2024-03-25T08:21:38;4.80;;;1.60;;
20365;SDS011;10341;49.894;8.822;2024-03-25T08:26:58;5.10;;;1.60;;
20365;SDS011;10341;49.894;8.822;2024-03-25T08:32:18;5.47;;;1.70;;
20365;SDS011;10341;49.894;8.822;2024-03-25T08:37:37;2.80;;;1.10;;
20365;SDS011;10341;49.894;8.822;2024-03-25T08:42:56;3.20;;;1.20;;
20365;SDS011;10341;49.894;8.822;2024-03-25T08:48:16;5.72;;;1.20;;
20365;SDS011;10341;49.894;8.822;2024-03-25T08:53:35;5.60;;;1.48;;
20365;SDS011;10341;49.894;8.822;2024-03-25T08:58:55;5.15;;;1.40;;
20365;SDS011;10341;49.894;8.822;2024-03-25T09:04:16;3.65;;;1.15;;
20365;SDS011;10341;49.894;8.822;2024-03-25T09:09:35;4.65;;;1.38;;
20365;SDS011;10341;49.894;8.822;2024-03-25T09:15:13;4.53;;;1.42;;
20365;SDS011;10341;49.894;8.822;2024-03-25T09:20:33;3.70;;;1.33;;
20365;SDS011;10341;49.894;8.822;2024-03-25T09:25:52;4.28;;;1.40;;
20365;SDS011;10341;49.894;8.822;2024-03-25T09:31:12;4.80;;;1.30;;
20365;SDS011;10341;49.894;8.822;2024-03-25T09:36:32;4.10;;;1.17;;
20365;SDS011;10341;49.894;8.822;2024-03-25T09:41:52;3.70;;;1.23;;
20365;SDS011;10341;49.894;8.822;2024-03-25T09:47:14;3.08;;;1.38;;
20365;SDS011;10341;49.894;8.822;2024-03-25T09:52:34;4.70;;;1.60;;
20365;SDS011;10341;49.894;8.822;2024-03-25T09:57:53;7.05;;;1.65;;
20365;SDS011;10341;49.894;8.822;2024-03-25T10:03:13;4.75;;;1.50;;
20365;SDS011;10341;49.894;8.822;2024-03-25T10:08:33;4.13;;;1.38;;
20365;SDS011;10341;49.894;8.822;2024-03-25T10:13:52;2.78;;;1.05;;
20365;SDS011;10341;49.894;8.822;2024-03-25T10:19:11;2.80;;;1.38;;
20365;SDS011;10341;49.894;8.822;2024-03-25T10:24:40;4.00;;;1.35;;
20365;SDS011;10341;49.894;8.822;2024-03-25T10:30:01;3.80;;;1.42;;
20365;SDS011;10341;49.894;8.822;2024-03-25T10:40:40;3.80;;;1.10;;
20365;SDS011;10341;49.894;8.822;2024-03-25T10:45:59;2.83;;;1.08;;
20365;SDS011;10341;49.894;8.822;2024-03-25T10:51:20;3.00;;;1.05;;
20365;SDS011;10341;49.894;8.822;2024-03-25T10:56:40;3.05;;;1.00;;
20365;SDS011;10341;49.894;8.822;2024-03-25T11:02:00;3.78;;;1.10;;
20365;SDS011;10341;49.894;8.822;2024-03-25T11:07:24;4.25;;;1.33;;
20365;SDS011;10341;49.894;8.822;2024-03-25T11:12:49;3.05;;;1.27;;
20365;SDS011;10341;49.894;8.822;2024-03-25T11:18:12;3.42;;;1.23;;
20365;SDS011;10341;49.894;8.822;2024-03-25T11:23:38;3.55;;;1.30;;
20365;SDS011;10341;49.894;8.822;2024-03-25T11:29:00;3.30;;;1.33;;
20365;SDS011;10341;49.894;8.822;2024-03-25T11:39:39;2.83;;;1.00;;
20365;SDS011;10341;49.894;8.822;2024-03-25T11:50:19;3.08;;;1.08;;
20365;SDS011;10341;49.894;8.822;2024-03-25T11:55:39;4.55;;;1.20;;
20365;SDS011;10341;49.894;8.822;2024-03-25T12:01:00;3.78;;;1.02;;
20365;SDS011;10341;49.894;8.822;2024-03-25T12:06:20;3.45;;;1.20;;
20365;SDS011;10341;49.894;8.822;2024-03-25T12:16:59;3.70;;;1.30;;
20365;SDS011;10341;49.894;8.822;2024-03-25T12:22:19;3.30;;;1.20;;
20365;SDS011;10341;49.894;8.822;2024-03-25T12:27:39;2.53;;;1.08;;
20365;SDS011;10341;49.894;8.822;2024-03-25T12:33:01;3.55;;;1.00;;
20365;SDS011;10341;49.894;8.822;2024-03-25T12:38:27;2.33;;;1.10;;
20365;SDS011;10341;49.894;8.822;2024-03-25T12:43:49;3.72;;;1.20;;
20365;SDS011;10341;49.894;8.822;2024-03-25T12:49:09;3.10;;;1.20;;
20365;SDS011;10341;49.894;8.822;2024-03-25T12:54:29;3.65;;;1.27;;
20365;SDS011;10341;49.894;8.822;2024-03-25T12:59:49;2.60;;;1.33;;
20365;SDS011;10341;49.894;8.822;2024-03-25T13:10:28;2.60;;;1.30;;
20365;SDS011;10341;49.894;8.822;2024-03-25T13:15:48;3.05;;;1.20;;
20365;SDS011;10341;49.894;8.822;2024-03-25T13:21:08;2.90;;;1.15;;
20365;SDS011;10341;49.894;8.822;2024-03-25T13:26:27;3.80;;;1.40;;
20365;SDS011;10341;49.894;8.822;2024-03-25T13:31:46;3.70;;;1.38;;
20365;SDS011;10341;49.894;8.822;2024-03-25T13:37:06;3.55;;;1.40;;
20365;SDS011;10341;49.894;8.822;2024-03-25T13:42:25;3.28;;;1.17;;
20365;SDS011;10341;49.894;8.822;2024-03-25T13:47:44;1.90;;;1.10;;
20365;SDS011;10341;49.894;8.822;2024-03-25T13:53:04;3.70;;;1.25;;
20365;SDS011;10341;49.894;8.822;2024-03-25T13:58:23;3.28;;;1.52;;
20365;SDS011;10341;49.894;8.822;2024-03-25T14:03:42;3.63;;;1.13;;
20365;SDS011;10341;49.894;8.822;2024-03-25T14:09:02;2.08;;;1.10;;
20365;SDS011;10341;49.894;8.822;2024-03-25T14:14:28;2.60;;;1.20;;
20365;SDS011;10341;49.894;8.822;2024-03-25T14:19:48;2.83;;;1.30;;
20365;SDS011;10341;49.894;8.822;2024-03-25T14:25:08;2.67;;;1.00;;
20365;SDS011;10341;49.894;8.822;2024-03-25T14:30:27;2.30;;;1.40;;
20365;SDS011;10341;49.894;8.822;2024-03-25T14:35:46;3.75;;;1.35;;
20365;SDS011;10341;49.894;8.822;2024-03-25T14:41:07;2.72;;;1.20;;
20365;SDS011;10341;49.894;8.822;2024-03-25T14:46:29;3.28;;;1.25;;
20365;SDS011;10341;49.894;8.822;2024-03-25T14:51:49;3.88;;;1.30;;
20365;SDS011;10341;49.894;8.822;2024-03-25T14:57:09;2.15;;;1.20;;
20365;SDS011;10341;49.894;8.822;2024-03-25T15:02:28;2.75;;;1.45;;
20365;SDS011;10341;49.894;8.822;2024-03-25T15:13:06;3.05;;;1.58;;
20365;SDS011;10341;49.894;8.822;2024-03-25T15:18:26;3.10;;;1.33;;
20365;SDS011;10341;49.894;8.822;2024-03-25T15:23:45;2.95;;;1.35;;
20365;SDS011;10341;49.894;8.822;2024-03-25T15:29:05;3.50;;;1.20;;
20365;SDS011;10341;49.894;8.822;2024-03-25T15:34:24;2.08;;;1.10;;
20365;SDS011;10341;49.894;8.822;2024-03-25T15:39:43;4.05;;;1.45;;
20365;SDS011;10341;49.894;8.822;2024-03-25T15:45:03;4.45;;;1.50;;
20365;SDS011;10341;49.894;8.822;2024-03-25T15:50:23;3.20;;;1.30;;
20365;SDS011;10341;49.894;8.822;2024-03-25T15:55:43;3.10;;;1.35;;
20365;SDS011;10341;49.894;8.822;2024-03-25T16:01:02;4.20;;;1.35;;
20365;SDS011;10341;49.894;8.822;2024-03-25T16:06:22;5.15;;;1.60;;
20365;SDS011;10341;49.894;8.822;2024-03-25T16:11:41;6.43;;;2.27;;
20365;SDS011;10341;49.894;8.822;2024-03-25T16:22:20;2.25;;;1.17;;
20365;SDS011;10341;49.894;8.822;2024-03-25T16:27:39;3.55;;;1.02;;
20365;SDS011;10341;49.894;8.822;2024-03-25T16:32:59;2.72;;;0.90;;
20365;SDS011;10341;49.894;8.822;2024-03-25T16:38:18;3.23;;;1.00;;
20365;SDS011;10341;49.894;8.822;2024-03-25T16:43:37;1.65;;;0.88;;
20365;SDS011;10341;49.894;8.822;2024-03-25T16:48:57;2.30;;;1.17;;
20365;SDS011;10341;49.894;8.822;2024-03-25T16:54:16;3.03;;;1.10;;
20365;SDS011;10341;49.894;8.822;2024-03-25T16:59:36;3.13;;;1.13;;
20365;SDS011;10341;49.894;8.822;2024-03-25T17:04:56;2.28;;;0.85;;
20365;SDS011;10341;49.894;8.822;2024-03-25T17:10:15;3.92;;;1.30;;
20365;SDS011;10341;49.894;8.822;2024-03-25T17:15:34;3.00;;;1.17;;
20365;SDS011;10341;49.894;8.822;2024-03-25T17:21:00;1.90;;;1.17;;
20365;SDS011;10341;49.894;8.822;2024-03-25T17:26:20;2.85;;;1.20;;
20365;SDS011;10341;49.894;8.822;2024-03-25T17:36:59;5.07;;;1.58;;
20365;SDS011;10341;49.894;8.822;2024-03-25T17:42:18;1.63;;;1.10;;
20365;SDS011;10341;49.894;8.822;2024-03-25T17:47:37;2.00;;;1.20;;
20365;SDS011;10341;49.894;8.822;2024-03-25T17:52:56;4.80;;;2.03;;
20365;SDS011;10341;49.894;8.822;2024-03-25T17:58:15;2.88;;;1.60;;
20365;SDS011;10341;49.894;8.822;2024-03-25T18:03:34;3.13;;;1.48;;
20365;SDS011;10341;49.894;8.822;2024-03-25T18:08:54;3.83;;;1.30;;
20365;SDS011;10341;49.894;8.822;2024-03-25T18:14:13;3.37;;;1.20;;
20365;SDS011;10341;49.894;8.822;2024-03-25T18:19:32;2.55;;;1.40;;
20365;SDS011;10341;49.894;8.822;2024-03-25T18:24:51;3.67;;;1.63;;
20365;SDS011;10341;49.894;8.822;2024-03-25T18:30:11;3.53;;;1.75;;
20365;SDS011;10341;49.894;8.822;2024-03-25T18:35:37;4.20;;;1.88;;
20365;SDS011;10341;49.894;8.822;2024-03-25T18:41:01;2.50;;;1.67;;
20365;SDS011;10341;49.894;8.822;2024-03-25T18:46:20;3.20;;;1.50;;
20365;SDS011;10341;49.894;8.822;2024-03-25T18:51:39;5.18;;;1.88;;
20365;SDS011;10341;49.894;8.822;2024-03-25T18:56:58;7.57;;;1.87;;
20365;SDS011;10341;49.894;8.822;2024-03-25T19:02:18;5.15;;;1.90;;
20365;SDS011;10341;49.894;8.822;2024-03-25T19:07:38;4.75;;;1.92;;
20365;SDS011;10341;49.894;8.822;2024-03-25T19:12:59;3.47;;;1.35;;
20365;SDS011;10341;49.894;8.822;2024-03-25T19:18:19;4.97;;;1.80;;
20365;SDS011;10341;49.894;8.822;2024-03-25T19:23:39;5.70;;;2.28;;
20365;SDS011;10341;49.894;8.822;2024-03-25T19:28:58;5.60;;;2.73;;
20365;SDS011;10341;49.894;8.822;2024-03-25T19:34:17;5.00;;;2.70;;
20365;SDS011;10341;49.894;8.822;2024-03-25T19:39:37;5.60;;;2.67;;
20365;SDS011;10341;49.894;8.822;2024-03-25T19:44:58;7.35;;;2.97;;
20365;SDS011;10341;49.894;8.822;2024-03-25T19:50:17;5.32;;;1.90;;
20365;SDS011;10341;49.894;8.822;2024-03-25T20:00:57;3.80;;;1.98;;
20365;SDS011;10341;49.894;8.822;2024-03-25T20:06:24;3.90;;;2.38;;
20365;SDS011;10341;49.894;8.822;2024-03-25T20:11:42;5.53;;;2.30;;
20365;SDS011;10341;49.894;8.822;2024-03-25T20:17:02;4.78;;;2.42;;
20365;SDS011;10341;49.894;8.822;2024-03-25T20:22:21;3.97;;;2.45;;
20365;SDS011;10341;49.894;8.822;2024-03-25T20:27:41;5.03;;;2.70;;
20365;SDS011;10341;49.894;8.822;2024-03-25T20:33:00;6.03;;;2.90;;
20365;SDS011;10341;49.894;8.822;2024-03-25T20:38:20;5.30;;;3.08;;
20365;SDS011;10341;49.894;8.822;2024-03-25T20:43:39;4.97;;;2.80;;
20365;SDS011;10341;49.894;8.822;2024-03-25T20:48:59;5.35;;;3.10;;
20365;SDS011;10341;49.894;8.822;2024-03-25T20:54:18;4.32;;;2.75;;
20365;SDS011;10341;49.894;8.822;2024-03-25T20:59:38;4.13;;;2.15;;
20365;SDS011;10341;49.894;8.822;2024-03-25T21:04:57;4.93;;;2.20;;
20365;SDS011;10341;49.894;8.822;2024-03-25T21:10:16;4.93;;;2.20;;
20365;SDS011;10341;49.894;8.822;2024-03-25T21:15:36;6.28;;;2.35;;
20365;SDS011;10341;49.894;8.822;2024-03-25T21:26:15;4.82;;;2.20;;
20365;SDS011;10341;49.894;8.822;2024-03-25T21:31:34;2.47;;;2.05;;
20365;SDS011;10341;49.894;8.822;2024-03-25T21:36:53;8.87;;;4.27;;
20365;SDS011;10341;49.894;8.822;2024-03-25T21:42:12;5.90;;;2.55;;
20365;SDS011;10341;49.894;8.822;2024-03-25T21:47:31;4.28;;;2.55;;
20365;SDS011;10341;49.894;8.822;2024-03-25T21:52:51;4.70;;;2.67;;
20365;SDS011;10341;49.894;8.822;2024-03-25T21:58:10;4.38;;;2.65;;
20365;SDS011;10341;49.894;8.822;2024-03-25T22:03:29;4.63;;;2.15;;
20365;SDS011;10341;49.894;8.822;2024-03-25T22:08:48;6.20;;;2.77;;
20365;SDS011;10341;49.894;8.822;2024-03-25T22:14:08;4.78;;;2.83;;
20365;SDS011;10341;49.894;8.822;2024-03-25T22:19:27;3.38;;;2.08;;
20365;SDS011;10341;49.894;8.822;2024-03-25T22:24:46;7.38;;;2.40;;
20365;SDS011;10341;49.894;8.822;2024-03-25T22:30:05;6.47;;;3.10;;
20365;SDS011;10341;49.894;8.822;2024-03-25T22:35:25;5.88;;;2.75;;
20365;SDS011;10341;49.894;8.822;2024-03-25T22:40:44;5.18;;;2.60;;
20365;SDS011;10341;49.894;8.822;2024-03-25T22:51:23;7.15;;;3.25;;
20365;SDS011;10341;49.894;8.822;2024-03-25T22:56:43;4.90;;;3.10;;
20365;SDS011;10341;49.894;8.822;2024-03-25T23:02:02;5.20;;;2.80;;
20365;SDS011;10341;49.894;8.822;2024-03-25T23:07:22;5.40;;;2.75;;
20365;SDS011;10341;49.894;8.822;2024-03-25T23:18:01;5.63;;;2.90;;
20365;SDS011;10341;49.894;8.822;2024-03-25T23:23:21;5.78;;;3.03;;
20365;SDS011;10341;49.894;8.822;2024-03-25T23:33:59;4.47;;;2.38;;
20365;SDS011;10341;49.894;8.822;2024-03-25T23:39:19;4.05;;;2.60;;
20365;SDS011;10341;49.894;8.822;2024-03-25T23:44:38;7.38;;;2.80;;
20365;SDS011;10341;49.894;8.822;2024-03-25T23:49:57;5.88;;;2.80;;
